sensor_id;sensor_type;location;lat;lon;timestamp;pressure;altitude;pressure_sealevel;temperature;humidity
11415;BME280;5763;42.714;23.244;2023-07-28T00:00:43;94665.50;;;18.04;53.16
11415;BME280;5763;42.714;23.244;2023-07-28T00:03:10;94664.97;;;18.00;53.57
11415;BME280;5763;42.714;23.244;2023-07-28T00:05:37;94630.13;;;17.72;53.99
11415;BME280;5763;42.714;23.244;2023-07-28T00:08:03;94657.88;;;17.88;54.21
11415;BME280;5763;42.714;23.244;2023-07-28T00:10:30;94655.56;;;17.81;54.00
11415;BME280;5763;42.714;23.244;2023-07-28T00:12:57;94629.06;;;17.63;53.51
11415;BME280;5763;42.714;23.244;2023-07-28T00:15:24;94664.16;;;17.88;53.33
11415;BME280;5763;42.714;23.244;2023-07-28T00:17:52;94649.81;;;17.85;53.43
11415;BME280;5763;42.714;23.244;2023-07-28T00:20:19;94656.13;;;17.91;53.33
11415;BME280;5763;42.714;23.244;2023-07-28T00:22:45;94653.38;;;17.91;53.05
11415;BME280;5763;42.714;23.244;2023-07-28T00:25:12;94645.31;;;17.92;53.02
11415;BME280;5763;42.714;23.244;2023-07-28T00:27:39;94648.56;;;17.91;53.47
11415;BME280;5763;42.714;23.244;2023-07-28T00:30:06;94649.81;;;17.90;53.49
11415;BME280;5763;42.714;23.244;2023-07-28T00:32:33;94644.56;;;17.92;53.49
11415;BME280;5763;42.714;23.244;2023-07-28T00:35:01;94641.78;;;17.98;53.25
11415;BME280;5763;42.714;23.244;2023-07-28T00:37:28;94639.31;;;18.16;52.61
11415;BME280;5763;42.714;23.244;2023-07-28T00:39:55;94643.38;;;18.21;53.03
11415;BME280;5763;42.714;23.244;2023-07-28T00:42:22;94641.91;;;18.31;52.89
11415;BME280;5763;42.714;23.244;2023-07-28T00:44:49;94641.13;;;18.30;53.02
11415;BME280;5763;42.714;23.244;2023-07-28T00:47:16;94649.50;;;18.41;52.75
11415;BME280;5763;42.714;23.244;2023-07-28T00:49:42;94647.97;;;18.46;52.65
11415;BME280;5763;42.714;23.244;2023-07-28T00:52:11;94647.75;;;18.49;52.50
11415;BME280;5763;42.714;23.244;2023-07-28T00:54:38;94652.00;;;18.45;52.58
11415;BME280;5763;42.714;23.244;2023-07-28T00:57:05;94653.28;;;18.49;52.47
11415;BME280;5763;42.714;23.244;2023-07-28T00:59:32;94650.50;;;18.44;52.84
11415;BME280;5763;42.714;23.244;2023-07-28T01:01:59;94645.72;;;18.39;53.03
11415;BME280;5763;42.714;23.244;2023-07-28T01:04:26;94649.25;;;18.45;52.87
11415;BME280;5763;42.714;23.244;2023-07-28T01:06:58;94612.16;;;18.20;52.87
11415;BME280;5763;42.714;23.244;2023-07-28T01:09:36;94652.50;;;18.38;52.75
11415;BME280;5763;42.714;23.244;2023-07-28T01:12:07;94652.00;;;18.34;52.47
11415;BME280;5763;42.714;23.244;2023-07-28T01:14:34;94658.06;;;18.38;52.35
11415;BME280;5763;42.714;23.244;2023-07-28T01:17:01;94656.03;;;18.44;51.92
11415;BME280;5763;42.714;23.244;2023-07-28T01:19:28;94644.94;;;18.33;51.90
11415;BME280;5763;42.714;23.244;2023-07-28T01:22:03;94653.03;;;18.42;51.78
11415;BME280;5763;42.714;23.244;2023-07-28T01:24:42;94644.94;;;18.33;51.61
11415;BME280;5763;42.714;23.244;2023-07-28T01:27:17;94648.13;;;18.14;51.99
11415;BME280;5763;42.714;23.244;2023-07-28T01:29:44;94647.88;;;18.13;52.10
11415;BME280;5763;42.714;23.244;2023-07-28T01:32:12;94655.44;;;18.17;51.80
11415;BME280;5763;42.714;23.244;2023-07-28T01:34:39;94645.63;;;18.22;51.59
11415;BME280;5763;42.714;23.244;2023-07-28T01:37:06;94637.06;;;18.20;51.79
11415;BME280;5763;42.714;23.244;2023-07-28T01:39:33;94639.81;;;18.09;52.24
11415;BME280;5763;42.714;23.244;2023-07-28T01:42:00;94642.31;;;18.07;52.29
11415;BME280;5763;42.714;23.244;2023-07-28T01:44:28;94641.84;;;18.14;52.31
11415;BME280;5763;42.714;23.244;2023-07-28T01:46:55;94646.38;;;18.17;52.26
11415;BME280;5763;42.714;23.244;2023-07-28T01:49:21;94646.66;;;18.19;52.18
11415;BME280;5763;42.714;23.244;2023-07-28T01:51:48;94652.69;;;18.17;52.29
11415;BME280;5763;42.714;23.244;2023-07-28T01:54:15;94651.91;;;18.12;52.28
11415;BME280;5763;42.714;23.244;2023-07-28T01:56:41;94659.97;;;18.15;52.32
11415;BME280;5763;42.714;23.244;2023-07-28T01:59:08;94649.88;;;18.07;52.25
11415;BME280;5763;42.714;23.244;2023-07-28T02:01:36;94655.16;;;18.04;52.57
11415;BME280;5763;42.714;23.244;2023-07-28T02:04:03;94656.63;;;17.94;52.91
11415;BME280;5763;42.714;23.244;2023-07-28T02:06:31;94651.63;;;18.04;52.82
11415;BME280;5763;42.714;23.244;2023-07-28T02:08:58;94657.91;;;18.04;52.50
11415;BME280;5763;42.714;23.244;2023-07-28T02:11:25;94660.94;;;17.96;52.60
11415;BME280;5763;42.714;23.244;2023-07-28T02:13:51;94658.91;;;17.96;52.64
11415;BME280;5763;42.714;23.244;2023-07-28T02:16:18;94658.41;;;17.92;52.90
11415;BME280;5763;42.714;23.244;2023-07-28T02:18:46;94652.78;;;17.76;53.16
11415;BME280;5763;42.714;23.244;2023-07-28T02:21:13;94656.34;;;17.82;53.13
11415;BME280;5763;42.714;23.244;2023-07-28T02:23:39;94667.38;;;17.76;53.50
11415;BME280;5763;42.714;23.244;2023-07-28T02:26:06;94647.72;;;17.68;53.28
11415;BME280;5763;42.714;23.244;2023-07-28T02:28:33;94670.38;;;17.73;53.31
11415;BME280;5763;42.714;23.244;2023-07-28T02:31:00;94674.41;;;17.72;53.42
11415;BME280;5763;42.714;23.244;2023-07-28T02:33:27;94666.09;;;17.72;53.76
11415;BME280;5763;42.714;23.244;2023-07-28T02:35:56;94666.59;;;17.65;53.98
11415;BME280;5763;42.714;23.244;2023-07-28T02:38:23;94666.31;;;17.63;54.07
11415;BME280;5763;42.714;23.244;2023-07-28T02:40:49;94668.34;;;17.67;54.29
11415;BME280;5763;42.714;23.244;2023-07-28T02:43:16;94662.53;;;17.60;54.41
11415;BME280;5763;42.714;23.244;2023-07-28T02:45:43;94663.28;;;17.61;54.52
11415;BME280;5763;42.714;23.244;2023-07-28T02:48:10;94664.75;;;17.51;54.80
11415;BME280;5763;42.714;23.244;2023-07-28T02:50:36;94661.50;;;17.52;54.96
11415;BME280;5763;42.714;23.244;2023-07-28T02:53:05;94664.25;;;17.58;55.06
11415;BME280;5763;42.714;23.244;2023-07-28T02:55:31;94663.25;;;17.55;55.11
11415;BME280;5763;42.714;23.244;2023-07-28T02:57:58;94656.41;;;17.45;55.54
11415;BME280;5763;42.714;23.244;2023-07-28T03:00:25;94661.69;;;17.43;55.76
11415;BME280;5763;42.714;23.244;2023-07-28T03:02:51;94658.97;;;17.49;56.21
11415;BME280;5763;42.714;23.244;2023-07-28T03:05:18;94655.66;;;17.45;56.28
11415;BME280;5763;42.714;23.244;2023-07-28T03:07:47;94666.97;;;17.47;56.31
11415;BME280;5763;42.714;23.244;2023-07-28T03:10:16;94657.66;;;17.39;56.49
11415;BME280;5763;42.714;23.244;2023-07-28T03:12:42;94666.63;;;17.33;56.46
11415;BME280;5763;42.714;23.244;2023-07-28T03:15:09;94676.63;;;17.25;56.61
11415;BME280;5763;42.714;23.244;2023-07-28T03:17:36;94670.56;;;17.21;56.60
11415;BME280;5763;42.714;23.244;2023-07-28T03:20:03;94673.56;;;17.18;56.47
11415;BME280;5763;42.714;23.244;2023-07-28T03:22:30;94681.91;;;17.23;56.23
11415;BME280;5763;42.714;23.244;2023-07-28T03:24:57;94682.63;;;17.18;56.45
11415;BME280;5763;42.714;23.244;2023-07-28T03:27:25;94673.81;;;17.20;56.63
11415;BME280;5763;42.714;23.244;2023-07-28T03:29:52;94677.31;;;17.15;56.96
11415;BME280;5763;42.714;23.244;2023-07-28T03:32:18;94664.88;;;16.99;56.65
11415;BME280;5763;42.714;23.244;2023-07-28T03:34:45;94678.53;;;17.08;56.94
11415;BME280;5763;42.714;23.244;2023-07-28T03:37:12;94686.13;;;17.13;56.88
11415;BME280;5763;42.714;23.244;2023-07-28T03:39:39;94685.97;;;16.97;56.63
11415;BME280;5763;42.714;23.244;2023-07-28T03:42:06;94695.69;;;16.87;57.09
11415;BME280;5763;42.714;23.244;2023-07-28T03:44:35;94698.22;;;16.85;57.23
11415;BME280;5763;42.714;23.244;2023-07-28T03:47:03;94687.97;;;16.65;57.58
11415;BME280;5763;42.714;23.244;2023-07-28T03:49:30;94698.22;;;16.59;58.13
11415;BME280;5763;42.714;23.244;2023-07-28T03:51:56;94683.53;;;16.48;58.25
11415;BME280;5763;42.714;23.244;2023-07-28T03:54:23;94685.56;;;16.48;58.75
11415;BME280;5763;42.714;23.244;2023-07-28T03:56:50;94685.78;;;16.44;58.65
11415;BME280;5763;42.714;23.244;2023-07-28T03:59:17;94685.56;;;16.48;58.38
11415;BME280;5763;42.714;23.244;2023-07-28T04:01:45;94695.44;;;16.59;58.28
11415;BME280;5763;42.714;23.244;2023-07-28T04:04:14;94684.97;;;16.69;57.63
11415;BME280;5763;42.714;23.244;2023-07-28T04:06:42;94684.56;;;16.76;57.43
11415;BME280;5763;42.714;23.244;2023-07-28T04:09:10;94680.31;;;16.80;57.81
11415;BME280;5763;42.714;23.244;2023-07-28T04:11:37;94683.88;;;16.86;57.81
11415;BME280;5763;42.714;23.244;2023-07-28T04:14:04;94676.56;;;16.83;57.76
11415;BME280;5763;42.714;23.244;2023-07-28T04:16:31;94688.56;;;17.06;57.52
11415;BME280;5763;42.714;23.244;2023-07-28T04:19:00;94697.38;;;17.10;57.42
11415;BME280;5763;42.714;23.244;2023-07-28T04:21:27;94700.19;;;17.15;56.91
11415;BME280;5763;42.714;23.244;2023-07-28T04:23:53;94697.00;;;17.28;56.97
11415;BME280;5763;42.714;23.244;2023-07-28T04:26:20;94695.81;;;17.34;57.19
11415;BME280;5763;42.714;23.244;2023-07-28T04:28:47;94692.81;;;17.38;57.18
11415;BME280;5763;42.714;23.244;2023-07-28T04:31:13;94698.13;;;17.42;57.08
11415;BME280;5763;42.714;23.244;2023-07-28T04:33:41;94698.03;;;17.30;56.71
11415;BME280;5763;42.714;23.244;2023-07-28T04:36:10;94703.56;;;17.30;56.26
11415;BME280;5763;42.714;23.244;2023-07-28T04:38:36;94697.41;;;17.47;55.30
11415;BME280;5763;42.714;23.244;2023-07-28T04:41:03;94702.41;;;17.42;55.36
11415;BME280;5763;42.714;23.244;2023-07-28T04:43:30;94696.38;;;17.39;55.17
11415;BME280;5763;42.714;23.244;2023-07-28T04:45:56;94709.19;;;17.42;55.00
11415;BME280;5763;42.714;23.244;2023-07-28T04:48:23;94705.72;;;17.47;54.92
11415;BME280;5763;42.714;23.244;2023-07-28T04:50:50;94703.19;;;17.43;55.06
11415;BME280;5763;42.714;23.244;2023-07-28T04:53:18;94701.44;;;17.46;55.08
11415;BME280;5763;42.714;23.244;2023-07-28T04:55:45;94691.00;;;17.35;55.22
11415;BME280;5763;42.714;23.244;2023-07-28T04:58:12;94700.22;;;17.52;54.81
11415;BME280;5763;42.714;23.244;2023-07-28T05:00:38;94702.03;;;17.61;54.77
11415;BME280;5763;42.714;23.244;2023-07-28T05:03:05;94698.25;;;17.63;54.62
11415;BME280;5763;42.714;23.244;2023-07-28T05:05:32;94702.03;;;17.66;54.36
11415;BME280;5763;42.714;23.244;2023-07-28T05:07:59;94701.06;;;17.69;54.28
11415;BME280;5763;42.714;23.244;2023-07-28T05:10:27;94697.81;;;17.71;54.33
11415;BME280;5763;42.714;23.244;2023-07-28T05:12:54;94705.91;;;17.80;54.14
11415;BME280;5763;42.714;23.244;2023-07-28T05:15:21;94694.41;;;17.92;54.32
11415;BME280;5763;42.714;23.244;2023-07-28T05:17:49;94699.16;;;17.92;54.09
11415;BME280;5763;42.714;23.244;2023-07-28T05:20:16;94701.94;;;17.92;53.94
11415;BME280;5763;42.714;23.244;2023-07-28T05:22:42;94696.94;;;18.01;53.63
11415;BME280;5763;42.714;23.244;2023-07-28T05:25:09;94688.66;;;18.07;53.70
11415;BME280;5763;42.714;23.244;2023-07-28T05:27:37;94699.22;;;18.02;54.07
11415;BME280;5763;42.714;23.244;2023-07-28T05:30:05;94700.47;;;18.02;53.91
11415;BME280;5763;42.714;23.244;2023-07-28T05:32:32;94700.75;;;18.14;53.81
11415;BME280;5763;42.714;23.244;2023-07-28T05:34:59;94694.22;;;18.17;53.67
11415;BME280;5763;42.714;23.244;2023-07-28T05:37:26;94695.00;;;18.23;53.30
11415;BME280;5763;42.714;23.244;2023-07-28T05:39:52;94689.22;;;18.22;53.16
11415;BME280;5763;42.714;23.244;2023-07-28T05:42:19;94692.50;;;18.26;53.86
11415;BME280;5763;42.714;23.244;2023-07-28T05:44:47;94691.28;;;18.32;53.83
11415;BME280;5763;42.714;23.244;2023-07-28T05:47:14;94678.72;;;18.37;53.84
11415;BME280;5763;42.714;23.244;2023-07-28T05:49:41;94679.94;;;18.36;54.05
11415;BME280;5763;42.714;23.244;2023-07-28T05:52:07;94680.47;;;18.40;53.77
11415;BME280;5763;42.714;23.244;2023-07-28T05:54:34;94676.72;;;18.54;53.63
11415;BME280;5763;42.714;23.244;2023-07-28T05:57:01;94677.47;;;18.60;53.05
11415;BME280;5763;42.714;23.244;2023-07-28T05:59:27;94676.25;;;18.66;52.51
11415;BME280;5763;42.714;23.244;2023-07-28T06:01:56;94674.72;;;18.71;52.49
11415;BME280;5763;42.714;23.244;2023-07-28T06:04:23;94663.13;;;18.72;52.76
11415;BME280;5763;42.714;23.244;2023-07-28T06:06:49;94669.69;;;18.86;52.61
11415;BME280;5763;42.714;23.244;2023-07-28T06:09:17;94663.88;;;18.89;52.85
11415;BME280;5763;42.714;23.244;2023-07-28T06:11:44;94667.19;;;18.99;52.74
11415;BME280;5763;42.714;23.244;2023-07-28T06:14:10;94673.72;;;19.07;52.97
11415;BME280;5763;42.714;23.244;2023-07-28T06:16:37;94673.50;;;19.10;52.25
11415;BME280;5763;42.714;23.244;2023-07-28T06:19:05;94668.44;;;19.09;51.75
11415;BME280;5763;42.714;23.244;2023-07-28T06:21:33;94668.44;;;19.09;50.69
11415;BME280;5763;42.714;23.244;2023-07-28T06:24:00;94672.72;;;19.21;50.48
11415;BME280;5763;42.714;23.244;2023-07-28T06:26:27;94672.97;;;19.23;50.58
11415;BME280;5763;42.714;23.244;2023-07-28T06:28:54;94668.97;;;19.24;50.80
11415;BME280;5763;42.714;23.244;2023-07-28T06:31:21;94597.59;;;18.75;50.53
11415;BME280;5763;42.714;23.244;2023-07-28T06:33:47;94663.66;;;19.31;50.57
11415;BME280;5763;42.714;23.244;2023-07-28T06:36:16;94661.88;;;19.39;50.27
11415;BME280;5763;42.714;23.244;2023-07-28T06:38:43;94665.38;;;19.51;49.86
11415;BME280;5763;42.714;23.244;2023-07-28T06:41:13;94661.34;;;19.52;49.19
11415;BME280;5763;42.714;23.244;2023-07-28T06:43:40;94665.63;;;19.53;49.52
11415;BME280;5763;42.714;23.244;2023-07-28T06:46:06;94660.06;;;19.53;49.80
11415;BME280;5763;42.714;23.244;2023-07-28T06:48:33;94658.78;;;19.59;49.93
11415;BME280;5763;42.714;23.244;2023-07-28T06:51:00;94659.25;;;19.74;50.00
11415;BME280;5763;42.714;23.244;2023-07-28T06:53:29;94665.28;;;19.89;49.56
11415;BME280;5763;42.714;23.244;2023-07-28T06:55:55;94665.50;;;19.97;48.89
11415;BME280;5763;42.714;23.244;2023-07-28T06:58:22;94660.16;;;19.99;48.94
11415;BME280;5763;42.714;23.244;2023-07-28T07:00:49;94666.97;;;20.09;48.17
11415;BME280;5763;42.714;23.244;2023-07-28T07:03:15;94665.97;;;20.12;48.47
11415;BME280;5763;42.714;23.244;2023-07-28T07:05:42;94658.88;;;20.16;48.25
11415;BME280;5763;42.714;23.244;2023-07-28T07:08:09;94662.13;;;20.20;48.48
11415;BME280;5763;42.714;23.244;2023-07-28T07:10:38;94660.81;;;20.32;48.63
11415;BME280;5763;42.714;23.244;2023-07-28T07:13:05;94650.63;;;20.46;48.51
11415;BME280;5763;42.714;23.244;2023-07-28T07:15:33;94657.63;;;20.58;48.27
11415;BME280;5763;42.714;23.244;2023-07-28T07:18:01;94628.41;;;20.46;47.82
11415;BME280;5763;42.714;23.244;2023-07-28T07:20:27;94660.31;;;20.74;46.03
11415;BME280;5763;42.714;23.244;2023-07-28T07:22:54;94669.31;;;20.86;45.91
11415;BME280;5763;42.714;23.244;2023-07-28T07:25:21;94663.47;;;20.95;46.67
11415;BME280;5763;42.714;23.244;2023-07-28T07:27:49;94662.25;;;20.90;45.69
11415;BME280;5763;42.714;23.244;2023-07-28T07:30:16;94668.50;;;20.96;45.12
11415;BME280;5763;42.714;23.244;2023-07-28T07:32:43;94664.13;;;21.06;45.44
11415;BME280;5763;42.714;23.244;2023-07-28T07:35:10;94672.66;;;21.14;45.54
11415;BME280;5763;42.714;23.244;2023-07-28T07:37:37;94667.81;;;21.20;45.86
11415;BME280;5763;42.714;23.244;2023-07-28T07:40:06;94675.88;;;21.23;45.77
11415;BME280;5763;42.714;23.244;2023-07-28T07:42:41;94674.66;;;21.43;44.93
11415;BME280;5763;42.714;23.244;2023-07-28T07:45:11;94667.84;;;21.44;44.78
11415;BME280;5763;42.714;23.244;2023-07-28T07:47:38;94673.53;;;21.57;44.37
11415;BME280;5763;42.714;23.244;2023-07-28T07:50:06;94672.41;;;21.71;44.52
11415;BME280;5763;42.714;23.244;2023-07-28T07:52:34;94674.31;;;21.81;44.42
11415;BME280;5763;42.714;23.244;2023-07-28T07:55:01;94674.13;;;21.98;44.23
11415;BME280;5763;42.714;23.244;2023-07-28T07:57:28;94667.16;;;22.10;44.16
11415;BME280;5763;42.714;23.244;2023-07-28T07:59:57;94666.56;;;22.17;44.27
11415;BME280;5763;42.714;23.244;2023-07-28T08:02:25;94667.03;;;22.21;44.24
11415;BME280;5763;42.714;23.244;2023-07-28T08:04:52;94677.19;;;22.37;43.92
11415;BME280;5763;42.714;23.244;2023-07-28T08:07:20;94675.09;;;22.43;43.55
11415;BME280;5763;42.714;23.244;2023-07-28T08:09:47;94665.88;;;22.53;43.13
11415;BME280;5763;42.714;23.244;2023-07-28T08:12:14;94673.16;;;22.56;43.51
11415;BME280;5763;42.714;23.244;2023-07-28T08:14:42;94665.78;;;22.59;43.37
11415;BME280;5763;42.714;23.244;2023-07-28T08:17:09;94664.25;;;22.58;43.17
11415;BME280;5763;42.714;23.244;2023-07-28T08:19:37;94659.44;;;22.77;42.83
11415;BME280;5763;42.714;23.244;2023-07-28T08:22:04;94663.09;;;22.85;42.66
11415;BME280;5763;42.714;23.244;2023-07-28T08:24:31;94654.03;;;22.97;41.55
11415;BME280;5763;42.714;23.244;2023-07-28T08:26:58;94646.88;;;23.02;41.89
11415;BME280;5763;42.714;23.244;2023-07-28T08:29:25;94649.88;;;23.04;42.30
11415;BME280;5763;42.714;23.244;2023-07-28T08:31:52;94651.44;;;23.18;41.61
11415;BME280;5763;42.714;23.244;2023-07-28T08:34:19;94655.13;;;23.26;41.43
11415;BME280;5763;42.714;23.244;2023-07-28T08:36:47;94653.41;;;23.36;41.21
11415;BME280;5763;42.714;23.244;2023-07-28T08:39:13;94653.47;;;23.49;41.28
11415;BME280;5763;42.714;23.244;2023-07-28T08:41:41;94650.91;;;23.64;41.13
11415;BME280;5763;42.714;23.244;2023-07-28T08:44:08;94650.91;;;23.77;41.13
11415;BME280;5763;42.714;23.244;2023-07-28T08:46:35;94649.84;;;23.93;40.56
11415;BME280;5763;42.714;23.244;2023-07-28T08:49:02;94656.84;;;23.99;40.42
11415;BME280;5763;42.714;23.244;2023-07-28T08:51:29;94651.91;;;24.05;40.12
11415;BME280;5763;42.714;23.244;2023-07-28T08:53:57;94642.00;;;24.17;39.18
11415;BME280;5763;42.714;23.244;2023-07-28T08:56:24;94643.59;;;24.26;38.81
11415;BME280;5763;42.714;23.244;2023-07-28T08:58:57;94642.06;;;24.38;38.94
11415;BME280;5763;42.714;23.244;2023-07-28T09:01:25;94635.34;;;24.54;38.39
11415;BME280;5763;42.714;23.244;2023-07-28T09:03:51;94631.72;;;24.59;38.90
11415;BME280;5763;42.714;23.244;2023-07-28T09:06:27;94594.47;;;24.51;37.09
11415;BME280;5763;42.714;23.244;2023-07-28T09:08:57;94618.66;;;24.74;37.68
11415;BME280;5763;42.714;23.244;2023-07-28T09:11:24;94620.41;;;24.85;37.02
11415;BME280;5763;42.714;23.244;2023-07-28T09:13:54;94616.06;;;24.97;36.27
11415;BME280;5763;42.714;23.244;2023-07-28T09:16:21;94611.88;;;25.11;36.35
11415;BME280;5763;42.714;23.244;2023-07-28T09:18:50;94605.63;;;25.18;36.79
11415;BME280;5763;42.714;23.244;2023-07-28T09:21:17;94597.16;;;25.31;36.75
11415;BME280;5763;42.714;23.244;2023-07-28T09:23:46;94606.44;;;25.46;36.81
11415;BME280;5763;42.714;23.244;2023-07-28T09:26:15;94594.94;;;25.57;36.56
11415;BME280;5763;42.714;23.244;2023-07-28T09:28:42;94598.88;;;25.62;36.16
11415;BME280;5763;42.714;23.244;2023-07-28T09:31:09;94581.06;;;25.80;35.51
11415;BME280;5763;42.714;23.244;2023-07-28T09:33:37;94584.34;;;25.91;34.47
11415;BME280;5763;42.714;23.244;2023-07-28T09:36:09;94569.41;;;26.04;34.19
11415;BME280;5763;42.714;23.244;2023-07-28T09:38:37;94577.38;;;26.20;34.29
11415;BME280;5763;42.714;23.244;2023-07-28T09:41:07;94568.81;;;26.33;34.98
11415;BME280;5763;42.714;23.244;2023-07-28T09:43:37;94560.25;;;26.54;34.92
11415;BME280;5763;42.714;23.244;2023-07-28T09:46:07;94562.22;;;26.74;34.17
11415;BME280;5763;42.714;23.244;2023-07-28T09:48:37;94561.13;;;26.92;32.25
11415;BME280;5763;42.714;23.244;2023-07-28T09:51:06;94551.41;;;27.15;33.23
11415;BME280;5763;42.714;23.244;2023-07-28T09:53:39;94552.38;;;27.25;33.40
11415;BME280;5763;42.714;23.244;2023-07-28T09:56:08;94554.25;;;27.38;32.97
11415;BME280;5763;42.714;23.244;2023-07-28T09:58:41;94549.88;;;27.59;32.90
11415;BME280;5763;42.714;23.244;2023-07-28T10:01:08;94547.25;;;27.76;32.61
11415;BME280;5763;42.714;23.244;2023-07-28T10:03:37;94550.06;;;27.84;32.12
11415;BME280;5763;42.714;23.244;2023-07-28T10:06:04;94551.34;;;27.90;31.54
11415;BME280;5763;42.714;23.244;2023-07-28T10:08:31;94540.44;;;28.02;30.77
11415;BME280;5763;42.714;23.244;2023-07-28T10:10:59;94544.16;;;28.12;30.40
11415;BME280;5763;42.714;23.244;2023-07-28T10:13:28;94542.63;;;28.18;29.45
11415;BME280;5763;42.714;23.244;2023-07-28T10:16:01;94534.53;;;28.30;30.07
11415;BME280;5763;42.714;23.244;2023-07-28T10:18:28;94539.75;;;28.41;29.91
11415;BME280;5763;42.714;23.244;2023-07-28T10:21:04;94538.25;;;28.40;29.74
11415;BME280;5763;42.714;23.244;2023-07-28T10:23:34;94538.59;;;28.44;30.14
11415;BME280;5763;42.714;23.244;2023-07-28T10:26:01;94541.34;;;28.59;29.86
11415;BME280;5763;42.714;23.244;2023-07-28T10:28:32;94524.19;;;28.72;28.76
11415;BME280;5763;42.714;23.244;2023-07-28T10:31:06;94525.34;;;29.01;29.09
11415;BME280;5763;42.714;23.244;2023-07-28T10:33:34;94513.69;;;29.21;29.66
11415;BME280;5763;42.714;23.244;2023-07-28T10:36:12;94536.41;;;29.48;28.57
11415;BME280;5763;42.714;23.244;2023-07-28T10:38:40;94526.16;;;29.60;28.46
11415;BME280;5763;42.714;23.244;2023-07-28T10:41:14;94531.97;;;29.62;28.42
11415;BME280;5763;42.714;23.244;2023-07-28T10:43:42;94519.38;;;29.63;28.15
11415;BME280;5763;42.714;23.244;2023-07-28T10:46:11;94524.34;;;29.72;28.17
11415;BME280;5763;42.714;23.244;2023-07-28T10:48:41;94524.28;;;29.96;28.22
11415;BME280;5763;42.714;23.244;2023-07-28T10:51:09;94522.22;;;30.14;27.72
11415;BME280;5763;42.714;23.244;2023-07-28T10:53:37;94510.56;;;30.27;27.49
11415;BME280;5763;42.714;23.244;2023-07-28T10:56:04;94506.06;;;30.41;26.36
11415;BME280;5763;42.714;23.244;2023-07-28T10:58:35;94497.38;;;30.56;25.45
11415;BME280;5763;42.714;23.244;2023-07-28T11:01:02;94510.16;;;30.57;25.24
11415;BME280;5763;42.714;23.244;2023-07-28T11:03:30;94499.19;;;30.61;25.40
11415;BME280;5763;42.714;23.244;2023-07-28T11:05:57;94498.22;;;30.66;24.82
11415;BME280;5763;42.714;23.244;2023-07-28T11:08:24;94498.84;;;30.74;24.34
11415;BME280;5763;42.714;23.244;2023-07-28T11:10:51;94490.88;;;30.63;24.25
11415;BME280;5763;42.714;23.244;2023-07-28T11:13:18;94479.91;;;30.67;24.35
11415;BME280;5763;42.714;23.244;2023-07-28T11:15:45;94484.00;;;30.83;23.96
11415;BME280;5763;42.714;23.244;2023-07-28T11:18:15;94482.41;;;30.89;25.13
11415;BME280;5763;42.714;23.244;2023-07-28T11:20:43;94473.81;;;30.97;25.22
11415;BME280;5763;42.714;23.244;2023-07-28T11:23:13;94481.72;;;30.98;24.03
11415;BME280;5763;42.714;23.244;2023-07-28T11:25:42;94483.38;;;31.11;24.63
11415;BME280;5763;42.714;23.244;2023-07-28T11:28:10;94469.53;;;31.15;23.86
11415;BME280;5763;42.714;23.244;2023-07-28T11:30:37;94463.84;;;31.41;24.83
11415;BME280;5763;42.714;23.244;2023-07-28T11:33:08;94459.06;;;31.44;23.35
11415;BME280;5763;42.714;23.244;2023-07-28T11:35:38;94442.09;;;31.53;23.02
11415;BME280;5763;42.714;23.244;2023-07-28T11:38:08;94447.94;;;31.74;23.23
11415;BME280;5763;42.714;23.244;2023-07-28T11:40:36;94442.63;;;31.88;24.18
11415;BME280;5763;42.714;23.244;2023-07-28T11:43:03;94453.03;;;31.85;23.18
11415;BME280;5763;42.714;23.244;2023-07-28T11:45:31;94452.16;;;31.83;23.07
11415;BME280;5763;42.714;23.244;2023-07-28T11:47:59;94457.81;;;31.92;23.20
11415;BME280;5763;42.714;23.244;2023-07-28T11:50:28;94447.22;;;31.93;23.49
11415;BME280;5763;42.714;23.244;2023-07-28T11:52:57;94446.59;;;31.94;22.96
11415;BME280;5763;42.714;23.244;2023-07-28T11:55:25;94450.91;;;32.14;23.41
11415;BME280;5763;42.714;23.244;2023-07-28T11:57:52;94458.53;;;32.31;23.63
11415;BME280;5763;42.714;23.244;2023-07-28T12:00:28;94445.22;;;32.43;23.86
11415;BME280;5763;42.714;23.244;2023-07-28T12:03:05;94442.84;;;32.39;23.13
11415;BME280;5763;42.714;23.244;2023-07-28T12:05:35;94450.19;;;32.33;21.87
11415;BME280;5763;42.714;23.244;2023-07-28T12:08:03;94453.59;;;32.41;22.28
11415;BME280;5763;42.714;23.244;2023-07-28T12:10:31;94437.94;;;32.40;22.33
11415;BME280;5763;42.714;23.244;2023-07-28T12:13:04;94438.22;;;32.53;23.14
11415;BME280;5763;42.714;23.244;2023-07-28T12:15:31;94435.19;;;32.61;21.76
11415;BME280;5763;42.714;23.244;2023-07-28T12:18:07;94427.28;;;32.59;22.26
11415;BME280;5763;42.714;23.244;2023-07-28T12:20:36;94423.25;;;32.62;21.92
11415;BME280;5763;42.714;23.244;2023-07-28T12:23:03;94426.53;;;32.59;21.65
11415;BME280;5763;42.714;23.244;2023-07-28T12:25:32;94427.59;;;32.63;22.65
11415;BME280;5763;42.714;23.244;2023-07-28T12:27:59;94432.78;;;32.67;22.22
11415;BME280;5763;42.714;23.244;2023-07-28T12:30:26;94408.34;;;32.62;22.19
11415;BME280;5763;42.714;23.244;2023-07-28T12:32:53;94414.91;;;32.64;22.63
11415;BME280;5763;42.714;23.244;2023-07-28T12:35:20;94408.41;;;32.43;24.11
11415;BME280;5763;42.714;23.244;2023-07-28T12:37:49;94406.19;;;32.41;22.92
11415;BME280;5763;42.714;23.244;2023-07-28T12:40:15;94414.56;;;32.30;22.57
11415;BME280;5763;42.714;23.244;2023-07-28T12:42:44;94409.16;;;32.24;22.94
11415;BME280;5763;42.714;23.244;2023-07-28T12:45:10;94407.63;;;32.52;22.42
11415;BME280;5763;42.714;23.244;2023-07-28T12:47:37;94393.69;;;32.65;21.96
11415;BME280;5763;42.714;23.244;2023-07-28T12:50:04;94393.19;;;32.88;22.31
11415;BME280;5763;42.714;23.244;2023-07-28T12:52:32;94400.63;;;32.93;22.11
11415;BME280;5763;42.714;23.244;2023-07-28T12:54:59;94399.84;;;33.02;22.35
11415;BME280;5763;42.714;23.244;2023-07-28T12:57:25;94401.00;;;32.68;22.19
11415;BME280;5763;42.714;23.244;2023-07-28T12:59:53;94394.28;;;32.64;22.60
11415;BME280;5763;42.714;23.244;2023-07-28T13:02:21;94391.44;;;32.73;22.78